createdAt,value
2022-12-25T00:00:10.478Z,12.75
2022-12-25T00:03:18.698Z,8.52
2022-12-25T00:06:23.840Z,11.40
2022-12-25T00:09:28.988Z,12.05
2022-12-25T00:12:34.157Z,11.07
2022-12-25T00:15:42.162Z,14.77
2022-12-25T00:18:47.381Z,11.60
2022-12-25T00:21:52.275Z,15.60
2022-12-25T00:24:57.185Z,9.55
2022-12-25T00:28:01.900Z,10.98
2022-12-25T00:31:09.737Z,13.15
2022-12-25T00:34:14.439Z,9.85
2022-12-25T00:37:19.325Z,12.43
2022-12-25T00:40:24.425Z,14.02
2022-12-25T00:43:29.361Z,12.68
2022-12-25T00:46:34.410Z,13.80
2022-12-25T00:49:39.527Z,9.57
2022-12-25T00:52:44.435Z,11.07
2022-12-25T00:55:54.960Z,9.07
2022-12-25T00:58:59.690Z,10.32
2022-12-25T01:02:22.942Z,11.32
2022-12-25T01:05:27.729Z,8.57
2022-12-25T01:08:36.899Z,12.05
2022-12-25T01:11:43.330Z,10.90
2022-12-25T01:14:48.531Z,9.32
2022-12-25T01:17:53.727Z,8.68
2022-12-25T01:20:58.673Z,7.75
2022-12-25T01:24:03.649Z,12.25
2022-12-25T01:27:08.974Z,6.53
2022-12-25T01:30:13.999Z,11.27
2022-12-25T01:33:19.568Z,10.48
2022-12-25T01:36:26.010Z,10.02
2022-12-25T01:39:31.671Z,10.68
2022-12-25T01:42:36.876Z,13.07
2022-12-25T01:45:44.307Z,7.70
2022-12-25T01:48:50.053Z,7.20
2022-12-25T01:52:12.341Z,8.55
2022-12-25T01:55:17.287Z,8.00
2022-12-25T01:58:22.373Z,10.18
2022-12-25T02:01:27.102Z,8.73
2022-12-25T02:04:40.218Z,9.95
2022-12-25T02:07:46.755Z,11.40
2022-12-25T02:10:51.556Z,9.43
2022-12-25T02:13:56.502Z,9.82
2022-12-25T02:17:15.746Z,6.97
2022-12-25T02:20:51.411Z,14.20
2022-12-25T02:24:17.652Z,14.23
2022-12-25T02:27:50.869Z,7.78
2022-12-25T02:31:04.283Z,16.05
2022-12-25T02:34:44.645Z,8.23
2022-12-25T02:38:16.531Z,8.73
2022-12-25T02:41:21.714Z,12.85
2022-12-25T02:44:46.122Z,13.27
2022-12-25T02:48:09.252Z,12.32
2022-12-25T02:51:35.012Z,11.25
2022-12-25T02:55:07.108Z,11.10
2022-12-25T02:58:36.771Z,12.85
2022-12-25T03:02:00.440Z,11.00
2022-12-25T03:05:26.628Z,10.48
2022-12-25T03:08:40.078Z,13.10
2022-12-25T03:11:46.463Z,12.63
2022-12-25T03:15:09.873Z,13.60
2022-12-25T03:18:18.390Z,11.73
2022-12-25T03:21:41.972Z,6.05
2022-12-25T03:25:21.908Z,9.73
2022-12-25T03:28:27.399Z,13.32
2022-12-25T03:31:56.972Z,7.35
2022-12-25T03:35:23.692Z,8.45
2022-12-25T03:38:47.843Z,6.35
2022-12-25T03:42:17.783Z,10.10
2022-12-25T03:45:50.393Z,8.23
2022-12-25T03:49:21.573Z,10.23
2022-12-25T03:52:45.509Z,12.50
2022-12-25T03:56:09.688Z,7.30
2022-12-25T03:59:36.692Z,9.52
2022-12-25T04:03:00.122Z,10.55
2022-12-25T04:06:24.066Z,10.18
2022-12-25T04:09:47.513Z,7.95
2022-12-25T04:13:10.823Z,10.48
2022-12-25T04:16:34.235Z,7.60
2022-12-25T04:19:57.635Z,7.35
2022-12-25T04:23:21.477Z,13.85
2022-12-25T04:26:44.931Z,9.48
2022-12-25T04:30:08.101Z,6.53
2022-12-25T04:33:31.811Z,10.02
2022-12-25T04:36:36.680Z,9.50
2022-12-25T04:39:41.587Z,7.85
2022-12-25T04:42:46.438Z,11.48
2022-12-25T04:45:56.113Z,10.38
2022-12-25T04:49:01.060Z,7.03
2022-12-25T04:52:05.874Z,7.70
2022-12-25T04:55:11.519Z,10.05
2022-12-25T04:58:16.324Z,11.32
2022-12-25T05:01:21.193Z,10.32
2022-12-25T05:04:26.195Z,10.95
2022-12-25T05:07:31.458Z,15.18
2022-12-25T05:10:40.247Z,10.80
2022-12-25T05:13:45.476Z,13.40
2022-12-25T05:16:50.530Z,7.57
2022-12-25T05:19:55.226Z,10.98
2022-12-25T05:23:00.050Z,6.45
2022-12-25T05:26:08.204Z,7.03
2022-12-25T05:29:13.441Z,10.77
2022-12-25T05:32:18.374Z,10.30
2022-12-25T05:35:23.365Z,8.43
2022-12-25T05:38:28.100Z,9.30
2022-12-25T05:41:34.613Z,9.13
2022-12-25T05:44:39.868Z,9.60
2022-12-25T05:47:44.719Z,9.07
2022-12-25T05:50:49.886Z,7.00
2022-12-25T05:53:54.545Z,8.65
2022-12-25T05:56:59.456Z,7.43
2022-12-25T06:00:06.124Z,9.48
2022-12-25T06:03:17.709Z,5.65
2022-12-25T06:06:22.568Z,8.38
2022-12-25T06:09:27.419Z,10.32
2022-12-25T06:12:32.181Z,6.38
2022-12-25T06:15:41.726Z,7.43
2022-12-25T06:18:51.771Z,10.00
2022-12-25T06:21:56.707Z,11.23
2022-12-25T06:25:01.755Z,5.82
2022-12-25T06:28:07.439Z,6.72
2022-12-25T06:31:21.780Z,6.75
2022-12-25T06:34:27.101Z,10.45
2022-12-25T06:37:32.092Z,12.20
2022-12-25T06:40:37.098Z,10.85
2022-12-25T06:43:42.131Z,11.23
2022-12-25T06:46:47.349Z,12.27
2022-12-25T06:49:52.395Z,12.07
2022-12-25T06:52:57.297Z,15.23
2022-12-25T06:56:06.994Z,12.73
2022-12-25T06:59:11.988Z,12.10
2022-12-25T07:02:20.891Z,9.50
2022-12-25T07:05:25.784Z,6.57
2022-12-25T07:08:30.774Z,7.15
2022-12-25T07:11:36.417Z,6.93
2022-12-25T07:14:41.924Z,6.85
2022-12-25T07:17:47.057Z,9.65
2022-12-25T07:20:52.015Z,9.77
2022-12-25T07:23:56.851Z,10.27
2022-12-25T07:27:01.692Z,10.20
2022-12-25T07:30:07.469Z,6.18
2022-12-25T07:33:12.261Z,7.80
2022-12-25T07:36:17.288Z,9.98
2022-12-25T07:39:23.628Z,12.35
2022-12-25T07:42:28.568Z,8.40
2022-12-25T07:45:33.462Z,11.85
2022-12-25T07:48:38.190Z,9.05
2022-12-25T07:51:42.928Z,9.82
2022-12-25T07:54:47.865Z,11.25
2022-12-25T07:57:53.222Z,16.20
2022-12-25T08:01:08.144Z,16.42
2022-12-25T08:04:13.007Z,14.32
2022-12-25T08:07:17.995Z,14.10
2022-12-25T08:10:23.010Z,11.30
2022-12-25T08:13:31.793Z,14.13
2022-12-25T08:16:41.420Z,15.07
2022-12-25T08:19:46.447Z,11.73
2022-12-25T08:22:51.440Z,9.02
2022-12-25T08:26:05.011Z,10.85
2022-12-25T08:29:10.638Z,10.23
2022-12-25T08:32:15.642Z,10.52
2022-12-25T08:35:20.588Z,10.77
2022-12-25T08:38:25.526Z,8.65
2022-12-25T08:41:31.749Z,11.60
2022-12-25T08:44:36.682Z,13.55
2022-12-25T08:47:41.286Z,11.27
2022-12-25T08:50:50.803Z,12.10
2022-12-25T08:54:00.299Z,13.68
2022-12-25T08:57:05.895Z,11.88
2022-12-25T09:00:11.493Z,11.80
2022-12-25T09:03:16.732Z,12.02
2022-12-25T09:06:21.797Z,9.55
2022-12-25T09:09:28.388Z,10.02
2022-12-25T09:12:33.608Z,11.75
2022-12-25T09:15:39.845Z,7.15
2022-12-25T09:18:45.057Z,13.50
2022-12-25T09:21:50.142Z,8.45
2022-12-25T09:24:54.877Z,12.73
2022-12-25T09:27:59.754Z,11.15
2022-12-25T09:31:04.761Z,12.73
2022-12-25T09:34:15.424Z,14.95
2022-12-25T09:37:22.132Z,18.50
2022-12-25T09:40:31.063Z,16.90
2022-12-25T09:43:51.565Z,15.95
2022-12-25T09:47:02.839Z,18.85
2022-12-25T09:50:28.743Z,11.63
2022-12-25T09:53:44.341Z,12.55
2022-12-25T09:56:49.558Z,11.13
2022-12-25T09:59:55.974Z,10.75
2022-12-25T10:03:48.937Z,12.27
2022-12-25T10:07:23.661Z,16.67
2022-12-25T10:10:52.939Z,15.63
2022-12-25T10:14:36.703Z,16.60
2022-12-25T10:18:03.418Z,15.25
2022-12-25T10:21:14.203Z,17.08
2022-12-25T10:24:35.643Z,11.05
2022-12-25T10:27:42.952Z,13.93
2022-12-25T10:30:49.188Z,13.52
2022-12-25T10:33:54.623Z,12.80
2022-12-25T10:36:59.855Z,16.67
2022-12-25T10:40:24.857Z,19.92
2022-12-25T10:43:39.486Z,15.45
2022-12-25T10:46:52.830Z,14.52
2022-12-25T10:49:58.315Z,18.40
2022-12-25T10:53:05.845Z,16.73
2022-12-25T10:56:17.726Z,14.20
2022-12-25T10:59:28.046Z,10.63
2022-12-25T11:02:40.038Z,10.77
2022-12-25T11:05:50.611Z,14.68
2022-12-25T11:08:58.766Z,10.18
2022-12-25T11:12:04.277Z,11.15
2022-12-25T11:15:44.215Z,7.43
2022-12-25T11:18:53.025Z,9.80
2022-12-25T11:22:01.233Z,7.95
2022-12-25T11:25:14.694Z,9.18
2022-12-25T11:28:19.760Z,10.32
2022-12-25T11:31:37.290Z,12.35
2022-12-25T11:34:48.642Z,10.40
2022-12-25T11:37:54.150Z,9.07
2022-12-25T11:41:01.504Z,13.80
2022-12-25T11:44:37.499Z,9.95
2022-12-25T11:47:56.368Z,9.95
2022-12-25T11:51:02.966Z,9.07
2022-12-25T11:54:10.584Z,10.10
2022-12-25T11:57:15.477Z,11.93
2022-12-25T12:00:21.123Z,10.90
2022-12-25T12:03:40.552Z,8.48
2022-12-25T12:06:49.907Z,14.07
2022-12-25T12:10:15.165Z,7.70
2022-12-25T12:13:41.883Z,10.68
2022-12-25T12:16:46.631Z,10.20
2022-12-25T12:19:52.596Z,7.35
2022-12-25T12:23:00.116Z,11.23
2022-12-25T12:26:05.375Z,8.52
2022-12-25T12:29:28.187Z,9.15
2022-12-25T12:32:46.455Z,9.02
2022-12-25T12:35:51.564Z,12.85
2022-12-25T12:38:58.091Z,10.93
2022-12-25T12:42:14.262Z,11.00
2022-12-25T12:45:27.103Z,11.18
2022-12-25T12:48:40.851Z,10.10
2022-12-25T12:51:46.290Z,8.90
2022-12-25T12:55:02.257Z,15.65
2022-12-25T12:58:07.325Z,9.80
2022-12-25T13:01:26.553Z,13.38
2022-12-25T13:04:34.613Z,9.15
2022-12-25T13:07:48.205Z,9.90
2022-12-25T13:11:22.267Z,13.60
2022-12-25T13:14:27.609Z,13.13
2022-12-25T13:17:32.613Z,13.05
2022-12-25T13:20:58.162Z,10.63
2022-12-25T13:24:10.535Z,9.35
2022-12-25T13:27:28.199Z,11.40
2022-12-25T13:30:33.026Z,11.88
2022-12-25T13:33:37.969Z,10.93
2022-12-25T13:36:43.423Z,9.85
2022-12-25T13:39:55.301Z,12.95
2022-12-25T13:43:01.125Z,15.52
2022-12-25T13:46:06.510Z,18.55
2022-12-25T13:49:20.941Z,13.48
2022-12-25T13:52:36.044Z,16.85
2022-12-25T13:55:42.473Z,14.82
2022-12-25T13:58:48.455Z,14.30
2022-12-25T14:01:57.799Z,19.50
2022-12-25T14:05:19.622Z,14.73
2022-12-25T14:08:28.310Z,18.17
2022-12-25T14:11:33.392Z,15.50
2022-12-25T14:14:38.686Z,12.30
2022-12-25T14:17:44.000Z,14.18
2022-12-25T14:21:31.604Z,15.20
2022-12-25T14:24:37.757Z,11.50
2022-12-25T14:27:51.856Z,10.80
2022-12-25T14:30:57.065Z,20.63
2022-12-25T14:34:03.670Z,8.65
2022-12-25T14:37:17.138Z,14.02
2022-12-25T14:40:31.367Z,9.70
2022-12-25T14:43:36.742Z,13.57
2022-12-25T14:46:41.775Z,9.70
2022-12-25T14:49:47.692Z,11.95
2022-12-25T14:52:53.077Z,15.63
2022-12-25T14:55:58.205Z,13.90
2022-12-25T14:59:03.533Z,14.82
2022-12-25T15:02:17.977Z,15.55
2022-12-25T15:05:36.853Z,15.45
2022-12-25T15:08:41.685Z,15.40
2022-12-25T15:11:55.831Z,16.00
2022-12-25T15:15:00.838Z,13.35
2022-12-25T15:18:05.626Z,15.68
2022-12-25T15:21:22.922Z,16.50
2022-12-25T15:24:28.188Z,15.70
2022-12-25T15:27:33.628Z,15.40
2022-12-25T15:30:41.842Z,12.32
2022-12-25T15:33:47.042Z,16.95
2022-12-25T15:36:52.935Z,17.08
2022-12-25T15:39:57.711Z,21.15
2022-12-25T15:43:06.451Z,27.77
2022-12-25T15:46:15.977Z,24.20
2022-12-25T15:49:20.956Z,20.33
2022-12-25T15:52:25.926Z,17.67
2022-12-25T15:55:31.045Z,35.58
2022-12-25T15:58:35.863Z,120.38
2022-12-25T16:01:48.094Z,32.50
2022-12-25T16:04:54.996Z,20.58
2022-12-25T16:08:00.187Z,22.80
2022-12-25T16:11:05.809Z,19.33
2022-12-25T16:14:11.416Z,18.80
2022-12-25T16:17:16.759Z,21.05
2022-12-25T16:20:21.910Z,25.00
2022-12-25T16:23:26.644Z,22.65
2022-12-25T16:26:33.184Z,19.13
2022-12-25T16:29:38.313Z,12.65
2022-12-25T16:32:45.245Z,11.15
2022-12-25T16:35:51.901Z,10.23
2022-12-25T16:38:57.123Z,10.48
2022-12-25T16:42:02.444Z,17.35
2022-12-25T16:45:08.074Z,18.80
2022-12-25T16:48:13.713Z,17.30
2022-12-25T16:51:20.556Z,14.25
2022-12-25T16:54:25.055Z,13.73
2022-12-25T16:57:32.491Z,17.73
2022-12-25T17:00:37.798Z,14.73
2022-12-25T17:03:43.216Z,23.83
2022-12-25T17:06:48.732Z,20.70
2022-12-25T17:09:53.959Z,26.58
2022-12-25T17:12:58.620Z,27.70
2022-12-25T17:16:19.974Z,27.65
2022-12-25T17:19:24.946Z,55.33
2022-12-25T17:22:30.287Z,53.20
2022-12-25T17:25:35.466Z,42.35
2022-12-25T17:28:40.700Z,55.70
2022-12-25T17:31:45.805Z,28.08
2022-12-25T17:34:50.673Z,36.83
2022-12-25T17:37:55.421Z,38.53
2022-12-25T17:41:02.300Z,31.98
2022-12-25T17:44:07.085Z,37.95
2022-12-25T17:47:11.916Z,37.20
2022-12-25T17:50:17.359Z,25.75
2022-12-25T17:53:22.182Z,42.35
2022-12-25T17:56:27.101Z,30.35
2022-12-25T17:59:31.871Z,29.52
2022-12-25T18:02:38.044Z,56.80
2022-12-25T18:05:43.368Z,22.40
2022-12-25T18:08:49.451Z,116.85
2022-12-25T18:11:54.648Z,184.32
2022-12-25T18:15:00.002Z,66.30
2022-12-25T18:18:05.420Z,22.67
2022-12-25T18:21:10.163Z,21.80
2022-12-25T18:24:15.213Z,21.60
2022-12-25T18:27:20.375Z,19.58
2022-12-25T18:30:25.667Z,22.80
2022-12-25T18:33:30.826Z,18.25
2022-12-25T18:36:36.842Z,16.55
2022-12-25T18:39:42.032Z,15.13
2022-12-25T18:42:52.280Z,11.00
2022-12-25T18:46:01.141Z,18.35
2022-12-25T18:49:06.007Z,17.20
2022-12-25T18:52:50.129Z,11.95
2022-12-25T18:55:36.183Z,14.48
2022-12-25T18:58:42.027Z,15.57
2022-12-25T19:01:46.884Z,15.85
2022-12-25T19:04:52.513Z,16.50
2022-12-25T19:07:57.309Z,10.02
2022-12-25T19:11:07.364Z,13.65
2022-12-25T19:14:12.304Z,13.05
2022-12-25T19:17:18.005Z,10.13
2022-12-25T19:20:23.160Z,14.35
2022-12-25T19:23:28.114Z,12.30
2022-12-25T19:26:33.360Z,12.68
2022-12-25T19:29:38.441Z,12.77
2022-12-25T19:32:43.681Z,13.23
2022-12-25T19:35:49.651Z,12.07
2022-12-25T19:38:54.579Z,13.52
2022-12-25T19:41:59.416Z,12.30
2022-12-25T19:45:05.873Z,15.52
2022-12-25T19:48:10.602Z,10.63
2022-12-25T19:51:26.476Z,11.50
2022-12-25T19:54:31.582Z,10.27
2022-12-25T19:57:36.973Z,15.38
2022-12-25T20:00:42.151Z,11.43
2022-12-25T20:03:47.962Z,18.45
2022-12-25T20:06:52.930Z,14.27
2022-12-25T20:09:57.880Z,15.30
2022-12-25T20:13:02.604Z,23.02
2022-12-25T20:16:10.033Z,12.25
2022-12-25T20:19:15.412Z,14.50
2022-12-25T20:22:20.548Z,9.10
2022-12-25T20:25:25.483Z,16.08
2022-12-25T20:28:34.404Z,13.68
2022-12-25T20:31:39.805Z,12.18
2022-12-25T20:34:44.840Z,12.48
2022-12-25T20:37:50.005Z,10.10
2022-12-25T20:44:30.120Z,14.13
2022-12-25T20:47:35.469Z,15.75
2022-12-25T20:50:40.781Z,11.10
2022-12-25T20:53:46.337Z,10.05
2022-12-25T20:56:51.251Z,13.05
2022-12-25T20:59:56.377Z,11.00
2022-12-25T21:03:01.282Z,15.63
2022-12-25T21:06:07.983Z,11.93
2022-12-25T21:09:13.290Z,10.80
2022-12-25T21:12:18.261Z,7.22
2022-12-25T21:15:24.553Z,7.10
2022-12-25T21:18:29.452Z,10.43
2022-12-25T21:21:35.987Z,8.45
2022-12-25T21:24:40.809Z,11.13
2022-12-25T21:27:46.701Z,10.20
2022-12-25T21:30:51.871Z,7.55
2022-12-25T21:33:57.705Z,11.25
2022-12-25T21:37:03.076Z,9.52
2022-12-25T21:40:14.419Z,8.48
2022-12-25T21:43:21.167Z,7.53
2022-12-25T21:46:26.690Z,9.23
2022-12-25T21:49:50.341Z,10.57
2022-12-25T21:52:55.186Z,8.18
2022-12-25T21:56:02.473Z,9.30
2022-12-25T21:59:08.999Z,8.85
2022-12-25T22:02:13.864Z,7.78
2022-12-25T22:05:37.471Z,7.60
2022-12-25T22:08:42.494Z,8.93
2022-12-25T22:12:06.340Z,10.82
2022-12-25T22:15:11.994Z,8.57
2022-12-25T22:18:35.652Z,8.05
2022-12-25T22:21:40.330Z,11.35
2022-12-25T22:24:45.188Z,11.90
2022-12-25T22:27:50.717Z,6.90
2022-12-25T22:30:55.493Z,11.13
2022-12-25T22:34:00.460Z,12.07
2022-12-25T22:37:06.415Z,8.88
2022-12-25T22:40:17.051Z,10.73
2022-12-25T22:43:22.557Z,9.15
2022-12-25T22:46:27.415Z,8.50
2022-12-25T22:49:32.178Z,10.65
2022-12-25T22:52:38.052Z,12.57
2022-12-25T22:55:47.519Z,9.95
2022-12-25T22:58:52.673Z,10.85
2022-12-25T23:01:57.741Z,7.15
2022-12-25T23:05:05.146Z,12.00
2022-12-25T23:08:10.092Z,8.77
2022-12-25T23:11:16.173Z,8.00
2022-12-25T23:14:39.407Z,8.27
2022-12-25T23:18:03.307Z,10.95
2022-12-25T23:21:28.919Z,8.13
2022-12-25T23:24:52.254Z,11.35
2022-12-25T23:27:57.235Z,6.57
2022-12-25T23:31:02.072Z,12.13
2022-12-25T23:34:07.660Z,9.18
2022-12-25T23:37:12.590Z,11.07
2022-12-25T23:40:17.519Z,10.38
2022-12-25T23:43:22.682Z,10.55
2022-12-25T23:46:27.480Z,8.93
2022-12-25T23:49:32.240Z,9.23
2022-12-25T23:52:37.129Z,10.00
2022-12-25T23:55:42.693Z,9.75
2022-12-25T23:58:51.958Z,9.60
